Time;durP1;ratioP1;P1;durP2;ratioP2;P2;SDS_P1;SDS_P2;PMS_P1;PMS_P2;Temp;Humidity;BMP_temperature;BMP_pressure;BME280_temperature;BME280_humidity;BME280_pressure;Samples;Min_cycle;Max_cycle;Signal;HPM_P1;HPM_P2
2021/06/04 00:02:07;;;;;;;;;;;;;;;;;;5061106;28;19912;-75
2021/06/04 00:04:33;;;;;;;;;;;;;;;;;;5062993;28;20403;-75
2021/06/04 00:06:59;;;;;;;;;;;;;;;;;;5064988;28;19920;-75
2021/06/04 00:09:25;;;;;;;;;;;;;;;;;;5072914;28;19912;-76
2021/06/04 00:11:51;;;;;;;;;;;;;;;;;;5057066;28;19924;-75
2021/06/04 00:14:17;;;;;;;;;;;;;;;;;;5053556;28;20350;-75
2021/06/04 00:16:43;;;;;;;;;;;;;;;;;;5053438;28;20386;-75
2021/06/04 00:19:09;;;;;;;;;;;;;;;;;;5055819;28;19943;-76
2021/06/04 00:21:35;;;;;;;;;;;;;;;;;;5052365;28;19913;-74
2021/06/04 00:24:01;;;;;;;;;;;;;;;;;;5053190;28;20373;-75
2021/06/04 00:26:26;;;;;;;;;;;;;;;;;;5059908;28;19919;-75
2021/06/04 00:28:52;;;;;;;;;;;;;;;;;;5054450;28;19974;-75
2021/06/04 00:31:21;;;;;;;;;;;;;;;;;;5052576;28;19909;-75
2021/06/04 00:33:46;;;;;;;;;;;;;;;;;;5056302;28;20286;-76
2021/06/04 00:36:12;;;;;;;;;;;;;;;;;;5066754;28;20354;-75
2021/06/04 00:38:38;;;;;;;;;;;;;;;;;;5054121;28;19924;-75
2021/06/04 00:41:04;;;;;;;;;;;;;;;;;;5051754;28;20307;-76
2021/06/04 00:43:30;;;;;;;;;;;;;;;;;;5052836;28;19909;-75
2021/06/04 00:45:56;;;;;;;;;;;;;;;;;;5052546;28;20047;-74
2021/06/04 00:48:22;;;;;;;;;;;;;;;;;;5036995;28;19921;-74
2021/06/04 00:50:48;;;;;;;;;;;;;;;;;;5059356;28;19919;-73
2021/06/04 00:53:14;;;;;;;;;;;;;;;;;;5068632;28;19991;-74
2021/06/04 00:55:40;;;;;;;;;;;;;;;;;;5062121;28;19919;-76
2021/06/04 00:58:05;;;;;;;;;;;;;;;;;;5070811;28;19918;-76
2021/06/04 01:00:31;;;;;;;;;;;;;;;;;;5054851;28;20063;-75
2021/06/04 01:02:57;;;;;;;;;;;;;;;;;;5040439;28;20286;-76
2021/06/04 01:05:23;;;;;;;;;;;;;;;;;;5038383;28;20402;-76
2021/06/04 01:07:49;;;;;;;;;;;;;;;;;;5067892;28;19920;-76
2021/06/04 01:10:15;;;;;;;;;;;;;;;;;;5072459;28;19951;-76
2021/06/04 01:12:41;;;;;;;;;;;;;;;;;;5045458;28;20464;-75
2021/06/04 01:15:07;;;;;;;;;;;;;;;;;;5071557;28;19913;-76
2021/06/04 01:17:33;;;;;;;;;;;;;;;;;;5059212;28;19986;-75
2021/06/04 01:19:59;;;;;;;;;;;;;;;;;;5052330;28;19952;-77
2021/06/04 01:22:24;;;;;;;;;;;;;;;;;;5042520;28;19919;-76
2021/06/04 01:24:50;;;;;;;;;;;;;;;;;;5051347;28;19913;-76
2021/06/04 01:27:16;;;;;;;;;;;;;;;;;;5052594;28;20352;-76
2021/06/04 01:29:42;;;;;;;;;;;;;;;;;;5051852;28;19944;-73
2021/06/04 01:32:08;;;;;;;;;;;;;;;;;;5056739;28;19927;-76
2021/06/04 01:34:34;;;;;;;;;;;;;;;;;;5052969;28;20003;-77
2021/06/04 01:37:00;;;;;;;;;;;;;;;;;;5053061;28;19935;-76
2021/06/04 01:39:26;;;;;;;;;;;;;;;;;;5052099;28;20436;-76
2021/06/04 01:41:52;;;;;;;;;;;;;;;;;;5053720;28;19927;-75
2021/06/04 01:44:17;;;;;;;;;;;;;;;;;;5057557;28;19913;-77
2021/06/04 01:46:43;;;;;;;;;;;;;;;;;;5070823;28;19915;-73
2021/06/04 01:49:09;;;;;;;;;;;;;;;;;;5056948;28;19913;-76
2021/06/04 01:51:35;;;;;;;;;;;;;;;;;;5053325;28;19925;-76
2021/06/04 01:54:01;;;;;;;;;;;;;;;;;;5051642;28;20283;-76
2021/06/04 01:56:27;;;;;;;;;;;;;;;;;;5062539;28;19951;-75
2021/06/04 01:58:53;;;;;;;;;;;;;;;;;;5070728;28;19913;-77
2021/06/04 02:01:19;;;;;;;;;;;;;;;;;;5061303;28;19920;-76
2021/06/04 02:03:44;;;;;;;;;;;;;;;;;;5062470;28;20014;-76
2021/06/04 02:06:10;;;;;;;;;;;;;;;;;;5070812;28;19916;-73
2021/06/04 02:08:36;;;;;;;;;;;;;;;;;;5069186;28;19912;-76
2021/06/04 02:11:02;;;;;;;;;;;;;;;;;;5058569;28;20359;-73
2021/06/04 02:13:28;;;;;;;;;;;;;;;;;;5070770;28;19930;-76
2021/06/04 02:15:54;;;;;;;;;;;;;;;;;;5063590;28;19913;-75
2021/06/04 02:18:20;;;;;;;;;;;;;;;;;;5050560;28;19919;-76
2021/06/04 02:20:46;;;;;;;;;;;;;;;;;;5051435;28;19999;-76
2021/06/04 02:23:12;;;;;;;;;;;;;;;;;;5055280;28;19916;-73
2021/06/04 02:25:37;;;;;;;;;;;;;;;;;;5050734;28;19982;-76
2021/06/04 02:28:03;;;;;;;;;;;;;;;;;;5050226;28;19996;-76
2021/06/04 02:30:29;;;;;;;;;;;;;;;;;;5051178;28;20370;-76
2021/06/04 02:32:55;;;;;;;;;;;;;;;;;;5070341;28;19920;-76
2021/06/04 02:35:21;;;;;;;;;;;;;;;;;;5070966;28;19912;-76
2021/06/04 02:37:47;;;;;;;;;;;;;;;;;;5071124;28;19999;-76
2021/06/04 02:40:13;;;;;;;;;;;;;;;;;;5053164;28;19917;-76
2021/06/04 02:42:39;;;;;;;;;;;;;;;;;;5068944;28;20389;-76
2021/06/04 02:45:04;;;;;;;;;;;;;;;;;;5070921;28;19958;-76
2021/06/04 02:47:30;;;;;;;;;;;;;;;;;;5069178;28;20019;-75
2021/06/04 02:49:56;;;;;;;;;;;;;;;;;;5050796;28;20393;-76
2021/06/04 02:52:22;;;;;;;;;;;;;;;;;;5064315;28;19924;-76
2021/06/04 02:54:48;;;;;;;;;;;;;;;;;;5054908;28;20286;-76
2021/06/04 02:57:14;;;;;;;;;;;;;;;;;;5050712;28;19909;-76
2021/06/04 02:59:40;;;;;;;;;;;;;;;;;;5052025;28;20646;-76
2021/06/04 03:02:06;;;;;;;;;;;;;;;;;;5068708;28;19908;-75
2021/06/04 03:04:32;;;;;;;;;;;;;;;;;;5075021;28;19919;-76
2021/06/04 03:06:58;;;;;;;;;;;;;;;;;;5072968;28;20524;-76
2021/06/04 03:09:24;;;;;;;;;;;;;;;;;;5059967;28;19971;-76
2021/06/04 03:11:50;;;;;;;;;;;;;;;;;;5061395;28;19929;-76
2021/06/04 03:14:16;;;;;;;;;;;;;;;;;;5057112;28;19915;-77
2021/06/04 03:16:42;;;;;;;;;;;;;;;;;;5060247;28;19917;-75
2021/06/04 03:19:08;;;;;;;;;;;;;;;;;;5071544;28;20014;-76
2021/06/04 03:21:33;;;;;;;;;;;;;;;;;;5074529;28;19951;-75
2021/06/04 03:23:59;;;;;;;;;;;;;;;;;;5061274;28;20000;-75
2021/06/04 03:26:25;;;;;;;;;;;;;;;;;;5061319;28;20377;-76
2021/06/04 03:28:51;;;;;;;;;;;;;;;;;;5056762;28;19950;-75
2021/06/04 03:31:19;;;;;;;;;;;;;;;;;;5062763;28;20428;-75
2021/06/04 03:33:45;;;;;;;;;;;;;;;;;;5074000;28;19920;-76
2021/06/04 03:36:11;;;;;;;;;;;;;;;;;;5072745;28;19915;-76
2021/06/04 03:38:37;;;;;;;;;;;;;;;;;;5072463;28;20375;-75
2021/06/04 03:41:03;;;;;;;;;;;;;;;;;;5063118;28;19954;-75
2021/06/04 03:43:29;;;;;;;;;;;;;;;;;;5072225;28;19923;-76
2021/06/04 03:45:54;;;;;;;;;;;;;;;;;;5065974;28;19913;-75
2021/06/04 03:48:20;;;;;;;;;;;;;;;;;;5052907;28;20465;-75
2021/06/04 03:50:46;;;;;;;;;;;;;;;;;;5055244;28;20008;-76
2021/06/04 03:53:12;;;;;;;;;;;;;;;;;;5053291;28;19975;-76
2021/06/04 03:55:38;;;;;;;;;;;;;;;;;;5063022;28;19919;-75
2021/06/04 03:58:04;;;;;;;;;;;;;;;;;;5055936;28;19913;-76
2021/06/04 04:00:30;;;;;;;;;;;;;;;;;;5064074;28;19912;-75
2021/06/04 04:02:56;;;;;;;;;;;;;;;;;;5053485;28;19952;-74
2021/06/04 04:05:21;;;;;;;;;;;;;;;;;;5056800;28;20011;-73
2021/06/04 04:07:47;;;;;;;;;;;;;;;;;;5073529;28;19912;-76
2021/06/04 04:10:13;;;;;;;;;;;;;;;;;;5058523;28;19917;-77
2021/06/04 04:12:39;;;;;;;;;;;;;;;;;;5053160;28;19917;-76
2021/06/04 04:15:05;;;;;;;;;;;;;;;;;;5053688;28;19916;-76
2021/06/04 04:17:31;;;;;;;;;;;;;;;;;;5053871;28;20392;-75
2021/06/04 04:19:57;;;;;;;;;;;;;;;;;;5053698;28;19921;-73
2021/06/04 04:22:24;;;;;;;;;;;;;;;;;;5053404;28;19909;-73
2021/06/04 04:24:49;;;;;;;;;;;;;;;;;;5052317;28;20283;-74
2021/06/04 04:27:15;;;;;;;;;;;;;;;;;;5053404;28;19915;-73
2021/06/04 04:29:41;;;;;;;;;;;;;;;;;;5063887;28;19916;-73
2021/06/04 04:32:12;;;;;;;;;;;;;;;;;;5053119;28;20278;-73
2021/06/04 04:34:38;;;;;;;;;;;;;;;;;;5058581;28;19920;-74
2021/06/04 04:37:04;;;;;;;;;;;;;;;;;;5072195;28;19912;-74
2021/06/04 04:39:29;;;;;;;;;;;;;;;;;;5056363;28;19974;-74
2021/06/04 04:41:55;;;;;;;;;;;;;;;;;;5063106;28;19936;-74
2021/06/04 04:44:21;;;;;;;;;;;;;;;;;;5056908;28;20377;-73
2021/06/04 04:46:47;;;;;;;;;;;;;;;;;;5060917;28;19944;-74
2021/06/04 04:49:13;;;;;;;;;;;;;;;;;;5054129;28;19927;-74
2021/06/04 04:51:39;;;;;;;;;;;;;;;;;;5072830;28;19962;-74
2021/06/04 04:54:05;;;;;;;;;;;;;;;;;;5072774;28;19909;-74
2021/06/04 04:56:31;;;;;;;;;;;;;;;;;;5072058;28;20416;-77
2021/06/04 04:58:57;;;;;;;;;;;;;;;;;;5040921;28;19913;-75
2021/06/04 05:01:23;;;;;;;;;;;;;;;;;;5043600;28;20397;-75
2021/06/04 05:03:49;;;;;;;;;;;;;;;;;;5056066;28;19919;-75
2021/06/04 05:06:14;;;;;;;;;;;;;;;;;;5056111;28;20025;-73
2021/06/04 05:08:40;;;;;;;;;;;;;;;;;;5052060;28;20758;-73
2021/06/04 05:11:06;;;;;;;;;;;;;;;;;;5052751;28;20335;-73
2021/06/04 05:13:32;;;;;;;;;;;;;;;;;;5051976;28;19982;-73
2021/06/04 05:15:59;;;;;;;;;;;;;;;;;;5052496;28;19915;-74
2021/06/04 05:18:25;;;;;;;;;;;;;;;;;;5048602;28;19913;-73
2021/06/04 05:20:51;;;;;;;;;;;;;;;;;;5049900;28;19978;-77
2021/06/04 05:23:17;;;;;;;;;;;;;;;;;;5053382;28;20678;-73
2021/06/04 05:25:44;;;;;;;;;;;;;;;;;;5062397;28;20001;-74
2021/06/04 05:28:10;;;;;;;;;;;;;;;;;;5045022;28;20278;-75
2021/06/04 05:30:36;;;;;;;;;;;;;;;;;;5051850;28;19932;-74
2021/06/04 05:33:02;;;;;;;;;;;;;;;;;;5049852;28;20344;-76
2021/06/04 05:35:28;;;;;;;;;;;;;;;;;;5042443;28;19913;-75
2021/06/04 05:37:54;;;;;;;;;;;;;;;;;;5040712;28;20338;-75
2021/06/04 05:40:20;;;;;;;;;;;;;;;;;;5038379;28;19947;-75
2021/06/04 05:42:46;;;;;;;;;;;;;;;;;;5048505;28;19948;-75
2021/06/04 05:45:12;;;;;;;;;;;;;;;;;;5050619;28;20603;-75
2021/06/04 05:47:38;;;;;;;;;;;;;;;;;;5039470;28;20401;-75
2021/06/04 05:50:04;;;;;;;;;;;;;;;;;;5041287;28;19921;-75
2021/06/04 05:52:30;;;;;;;;;;;;;;;;;;5042958;28;19921;-75
2021/06/04 05:54:56;;;;;;;;;;;;;;;;;;5070693;28;19916;-74
2021/06/04 05:57:22;;;;;;;;;;;;;;;;;;5071569;28;20383;-75
2021/06/04 05:59:49;;;;;;;;;;;;;;;;;;5069751;28;19912;-76
2021/06/04 06:02:15;;;;;;;;;;;;;;;;;;5036532;28;19955;-75
2021/06/04 06:04:41;;;;;;;;;;;;;;;;;;5039308;28;19916;-75
2021/06/04 06:07:07;;;;;;;;;;;;;;;;;;5051169;28;19970;-76
2021/06/04 06:09:32;;;;;;;;;;;;;;;;;;5049265;28;19917;-75
2021/06/04 06:11:58;;;;;;;;;;;;;;;;;;5049438;28;19924;-75
2021/06/04 06:14:24;;;;;;;;;;;;;;;;;;5051267;28;20384;-75
2021/06/04 06:16:50;;;;;;;;;;;;;;;;;;5050963;28;19909;-76
2021/06/04 06:19:16;;;;;;;;;;;;;;;;;;5039163;28;20386;-75
2021/06/04 06:21:42;;;;;;;;;;;;;;;;;;5047423;28;19913;-77
2021/06/04 06:24:08;;;;;;;;;;;;;;;;;;5049755;28;19928;-77
2021/06/04 06:26:34;;;;;;;;;;;;;;;;;;5050705;28;19920;-76
2021/06/04 06:29:00;;;;;;;;;;;;;;;;;;5048504;28;19909;-75
2021/06/04 06:31:26;;;;;;;;;;;;;;;;;;5040250;28;19919;-77
2021/06/04 06:33:52;;;;;;;;;;;;;;;;;;5050534;28;19928;-75
2021/06/04 06:36:20;;;;;;;;;;;;;;;;;;5050880;28;20007;-76
2021/06/04 06:38:48;;;;;;;;;;;;;;;;;;5049895;28;19916;-75
2021/06/04 06:41:14;;;;;;;;;;;;;;;;;;5046661;28;20018;-75
2021/06/04 06:43:39;;;;;;;;;;;;;;;;;;5050934;28;20355;-74
2021/06/04 06:46:05;;;;;;;;;;;;;;;;;;5049214;28;19966;-76
2021/06/04 06:48:31;;;;;;;;;;;;;;;;;;5050608;28;19974;-76
2021/06/04 06:50:57;;;;;;;;;;;;;;;;;;5049945;28;19912;-75
2021/06/04 06:53:23;;;;;;;;;;;;;;;;;;5050438;28;19921;-75
2021/06/04 06:55:49;;;;;;;;;;;;;;;;;;5038429;28;19909;-75
2021/06/04 06:58:15;;;;;;;;;;;;;;;;;;5031094;28;20451;-75
2021/06/04 07:00:41;;;;;;;;;;;;;;;;;;5030924;28;20616;-75
2021/06/04 07:03:07;;;;;;;;;;;;;;;;;;5031838;28;19920;-75
2021/06/04 07:05:33;;;;;;;;;;;;;;;;;;5030529;28;19925;-77
2021/06/04 07:07:59;;;;;;;;;;;;;;;;;;5038295;28;19912;-77
2021/06/04 07:10:25;;;;;;;;;;;;;;;;;;5062632;28;19944;-74
2021/06/04 07:12:51;;;;;;;;;;;;;;;;;;5041667;28;19917;-76
2021/06/04 07:15:16;;;;;;;;;;;;;;;;;;5034795;28;19919;-76
2021/06/04 07:17:42;;;;;;;;;;;;;;;;;;5051986;28;19913;-77
2021/06/04 07:20:08;;;;;;;;;;;;;;;;;;5059590;28;19913;-76
2021/06/04 07:22:34;;;;;;;;;;;;;;;;;;5049657;28;19917;-77
2021/06/04 07:25:00;;;;;;;;;;;;;;;;;;5046749;28;20644;-76
2021/06/04 07:27:26;;;;;;;;;;;;;;;;;;5049673;28;19996;-76
2021/06/04 07:29:52;;;;;;;;;;;;;;;;;;5041866;28;19967;-75
2021/06/04 07:32:18;;;;;;;;;;;;;;;;;;5048880;28;19960;-75
2021/06/04 07:34:44;;;;;;;;;;;;;;;;;;5048501;28;20379;-75
2021/06/04 07:37:10;;;;;;;;;;;;;;;;;;5039110;28;19924;-78
2021/06/04 07:39:38;;;;;;;;;;;;;;;;;;5041563;28;20516;-76
2021/06/04 07:42:04;;;;;;;;;;;;;;;;;;5036907;28;19912;-76
2021/06/04 07:44:29;;;;;;;;;;;;;;;;;;5044645;28;19920;-74
2021/06/04 07:46:55;;;;;;;;;;;;;;;;;;5048009;28;20004;-74
2021/06/04 07:49:22;;;;;;;;;;;;;;;;;;5050645;28;20294;-73
2021/06/04 07:51:47;;;;;;;;;;;;;;;;;;5044266;28;19952;-73
2021/06/04 07:54:14;;;;;;;;;;;;;;;;;;5050829;28;19912;-73
2021/06/04 07:56:39;;;;;;;;;;;;;;;;;;5051673;28;19913;-73
2021/06/04 07:59:05;;;;;;;;;;;;;;;;;;5043270;28;20279;-75
2021/06/04 08:01:31;;;;;;;;;;;;;;;;;;5044519;28;19932;-74
2021/06/04 08:03:57;;;;;;;;;;;;;;;;;;5052344;28;19909;-73
2021/06/04 08:06:23;;;;;;;;;;;;;;;;;;5044153;28;19924;-75
2021/06/04 08:08:53;;;;;;;;;;;;;;;;;;5046222;28;19913;-74
2021/06/04 08:11:19;;;;;;;;;;;;;;;;;;5051067;28;19961;-72
2021/06/04 08:13:46;;;;;;;;;;;;;;;;;;5050579;28;20382;-75
2021/06/04 08:16:12;;;;;;;;;;;;;;;;;;5052421;28;19909;-73
2021/06/04 08:18:38;;;;;;;;;;;;;;;;;;5051913;28;19940;-72
2021/06/04 08:21:04;;;;;;;;;;;;;;;;;;5049461;28;21246;-75
2021/06/04 08:23:30;;;;;;;;;;;;;;;;;;5052149;28;19916;-73
2021/06/04 08:25:57;;;;;;;;;;;;;;;;;;5052433;28;19920;-74
2021/06/04 08:28:23;;;;;;;;;;;;;;;;;;5048895;28;20350;-74
2021/06/04 08:30:49;;;;;;;;;;;;;;;;;;5053506;28;19916;-74
2021/06/04 08:33:15;;;;;;;;;;;;;;;;;;5053055;28;20018;-73
2021/06/04 08:35:41;;;;;;;;;;;;;;;;;;5052337;28;20389;-74
2021/06/04 08:38:07;;;;;;;;;;;;;;;;;;5036947;28;19913;-74
2021/06/04 08:40:33;;;;;;;;;;;;;;;;;;5033011;28;19913;-73
2021/06/04 08:42:58;;;;;;;;;;;;;;;;;;5044206;28;20264;-73
2021/06/04 08:45:24;;;;;;;;;;;;;;;;;;5052724;28;19912;-73
2021/06/04 08:47:50;;;;;;;;;;;;;;;;;;5052657;28;20353;-75
2021/06/04 08:50:16;;;;;;;;;;;;;;;;;;5043020;28;19913;-74
2021/06/04 08:52:42;;;;;;;;;;;;;;;;;;5032288;28;20543;-74
2021/06/04 08:55:08;;;;;;;;;;;;;;;;;;5031857;28;19916;-75
2021/06/04 08:57:36;;;;;;;;;;;;;;;;;;5032910;28;19956;-74
2021/06/04 09:00:01;;;;;;;;;;;;;;;;;;5031187;28;20008;-74
2021/06/04 09:02:27;;;;;;;;;;;;;;;;;;5032619;28;20320;-75
2021/06/04 09:04:53;;;;;;;;;;;;;;;;;;5039245;28;20398;-74
2021/06/04 09:07:19;;;;;;;;;;;;;;;;;;5051385;28;20382;-76
2021/06/04 09:09:45;;;;;;;;;;;;;;;;;;5036181;28;19913;-73
2021/06/04 09:12:11;;;;;;;;;;;;;;;;;;5043256;28;19928;-72
2021/06/04 09:14:37;;;;;;;;;;;;;;;;;;5039532;28;19913;-75
2021/06/04 09:17:04;;;;;;;;;;;;;;;;;;5030980;28;20233;-75
2021/06/04 09:19:30;;;;;;;;;;;;;;;;;;5035130;28;20409;-73
2021/06/04 09:21:56;;;;;;;;;;;;;;;;;;5033648;28;19917;-76
2021/06/04 09:24:22;;;;;;;;;;;;;;;;;;5033264;28;19917;-72
2021/06/04 09:26:48;;;;;;;;;;;;;;;;;;5045052;28;19913;-74
2021/06/04 09:29:14;;;;;;;;;;;;;;;;;;5051507;28;20055;-74
2021/06/04 09:31:39;;;;;;;;;;;;;;;;;;5047262;28;19913;-74
2021/06/04 09:34:05;;;;;;;;;;;;;;;;;;5031326;28;20360;-74
2021/06/04 09:36:31;;;;;;;;;;;;;;;;;;5035995;28;20410;-74
2021/06/04 09:38:57;;;;;;;;;;;;;;;;;;5042239;28;19913;-71
2021/06/04 09:41:23;;;;;;;;;;;;;;;;;;5049643;28;19916;-74
2021/06/04 09:43:49;;;;;;;;;;;;;;;;;;5050447;28;19913;-73
2021/06/04 09:46:15;;;;;;;;;;;;;;;;;;5049961;28;19921;-74
2021/06/04 09:48:41;;;;;;;;;;;;;;;;;;5048298;28;19931;-73
2021/06/04 09:51:07;;;;;;;;;;;;;;;;;;5047121;28;19913;-73
2021/06/04 09:53:34;;;;;;;;;;;;;;;;;;5046787;28;20121;-74
2021/06/04 09:56:00;;;;;;;;;;;;;;;;;;5050526;28;19940;-74
2021/06/04 09:58:25;;;;;;;;;;;;;;;;;;5046277;28;20007;-72
2021/06/04 10:00:51;;;;;;;;;;;;;;;;;;5048450;28;20023;-72
2021/06/04 10:03:17;;;;;;;;;;;;;;;;;;5047152;28;19919;-71
2021/06/04 10:05:44;;;;;;;;;;;;;;;;;;5050051;28;19913;-71
2021/06/04 10:08:10;;;;;;;;;;;;;;;;;;5044381;28;19913;-71
2021/06/04 10:10:36;;;;;;;;;;;;;;;;;;5045782;28;19913;-71
2021/06/04 10:13:04;;;;;;;;;;;;;;;;;;5044344;28;20961;-71
2021/06/04 10:15:31;;;;;;;;;;;;;;;;;;5048605;28;19912;-71
2021/06/04 10:20:23;;;;;;;;;;;;;;;;;;5050362;28;19990;-71
2021/06/04 10:22:49;;;;;;;;;;;;;;;;;;5047923;28;19924;-71
2021/06/04 10:25:15;;;;;;;;;;;;;;;;;;5049335;28;19973;-71
2021/06/04 10:27:41;;;;;;;;;;;;;;;;;;5050094;28;19910;-71
2021/06/04 10:30:07;;;;;;;;;;;;;;;;;;5034694;28;20007;-71
2021/06/04 10:32:33;;;;;;;;;;;;;;;;;;5039980;28;19975;-71
2021/06/04 10:34:59;;;;;;;;;;;;;;;;;;5050331;28;19913;-70
2021/06/04 10:37:24;;;;;;;;;;;;;;;;;;5034657;28;19920;-71
2021/06/04 10:39:50;;;;;;;;;;;;;;;;;;5048634;28;20367;-71
2021/06/04 10:42:16;;;;;;;;;;;;;;;;;;5051121;28;20308;-71
2021/06/04 10:44:44;;;;;;;;;;;;;;;;;;5045527;28;19916;-71
2021/06/04 10:47:10;;;;;;;;;;;;;;;;;;5049469;28;19939;-72
2021/06/04 10:49:36;;;;;;;;;;;;;;;;;;5045966;28;19913;-72
2021/06/04 10:52:01;;;;;;;;;;;;;;;;;;5044855;28;19912;-73
2021/06/04 10:54:27;;;;;;;;;;;;;;;;;;5048045;28;20400;-72
2021/06/04 10:56:53;;;;;;;;;;;;;;;;;;5044677;28;19919;-71
2021/06/04 10:59:19;;;;;;;;;;;;;;;;;;5036256;28;19917;-70
2021/06/04 11:01:45;;;;;;;;;;;;;;;;;;5042061;28;19908;-70
2021/06/04 11:04:11;;;;;;;;;;;;;;;;;;5049422;28;19920;-71
2021/06/04 11:06:37;;;;;;;;;;;;;;;;;;5049415;28;19940;-69
2021/06/04 11:09:03;;;;;;;;;;;;;;;;;;5044025;28;19996;-73
2021/06/04 11:11:29;;;;;;;;;;;;;;;;;;5030706;28;19909;-72
2021/06/04 11:13:55;;;;;;;;;;;;;;;;;;5035818;28;19942;-70
2021/06/04 11:16:21;;;;;;;;;;;;;;;;;;5046267;28;20352;-72
2021/06/04 11:18:47;;;;;;;;;;;;;;;;;;5045908;28;19910;-73
2021/06/04 11:21:13;;;;;;;;;;;;;;;;;;5039562;28;19979;-73
2021/06/04 11:23:39;;;;;;;;;;;;;;;;;;5054886;28;19915;-72
2021/06/04 11:26:04;;;;;;;;;;;;;;;;;;5040990;28;19913;-72
2021/06/04 11:28:30;;;;;;;;;;;;;;;;;;5052202;28;20000;-73
2021/06/04 11:30:56;;;;;;;;;;;;;;;;;;5054593;28;20023;-73
2021/06/04 11:33:22;;;;;;;;;;;;;;;;;;5036816;28;20332;-75
2021/06/04 11:35:48;;;;;;;;;;;;;;;;;;5034078;28;20422;-72
2021/06/04 11:38:14;;;;;;;;;;;;;;;;;;5034444;28;19913;-72
2021/06/04 11:40:40;;;;;;;;;;;;;;;;;;5034317;28;19914;-72
2021/06/04 11:43:06;;;;;;;;;;;;;;;;;;5043762;28;20472;-71
2021/06/04 11:45:32;;;;;;;;;;;;;;;;;;5037791;28;20007;-70
2021/06/04 11:47:58;;;;;;;;;;;;;;;;;;5046357;28;19921;-71
2021/06/04 11:50:24;;;;;;;;;;;;;;;;;;5034252;28;19916;-71
2021/06/04 11:52:50;;;;;;;;;;;;;;;;;;5034378;28;19921;-70
2021/06/04 11:55:17;;;;;;;;;;;;;;;;;;5049347;28;19912;-72
2021/06/04 11:57:43;;;;;;;;;;;;;;;;;;5053626;28;20363;-71
2021/06/04 12:00:09;;;;;;;;;;;;;;;;;;5054087;28;19916;-71
2021/06/04 12:02:35;;;;;;;;;;;;;;;;;;5048723;28;19913;-71
2021/06/04 12:05:01;;;;;;;;;;;;;;;;;;5047103;28;20279;-71
2021/06/04 12:07:26;;;;;;;;;;;;;;;;;;5048763;28;20370;-72
2021/06/04 12:09:52;;;;;;;;;;;;;;;;;;5054966;28;19913;-71
2021/06/04 12:12:24;;;;;;;;;;;;;;;;;;5050796;28;20318;-73
2021/06/04 12:14:50;;;;;;;;;;;;;;;;;;5051855;28;19999;-73
2021/06/04 12:17:16;;;;;;;;;;;;;;;;;;5062566;28;20004;-72
2021/06/04 12:19:42;;;;;;;;;;;;;;;;;;5057313;28;20745;-73
2021/06/04 12:22:08;;;;;;;;;;;;;;;;;;5054009;28;19920;-73
2021/06/04 12:24:35;;;;;;;;;;;;;;;;;;5071535;28;19916;-72
2021/06/04 12:27:02;;;;;;;;;;;;;;;;;;5057086;28;20319;-72
2021/06/04 12:29:30;;;;;;;;;;;;;;;;;;5060541;28;19913;-72
2021/06/04 12:31:59;;;;;;;;;;;;;;;;;;5052792;28;19916;-74
2021/06/04 12:34:25;;;;;;;;;;;;;;;;;;5051060;28;19913;-73
2021/06/04 12:36:51;;;;;;;;;;;;;;;;;;5052199;28;19923;-72
2021/06/04 12:39:17;;;;;;;;;;;;;;;;;;5049105;28;20429;-73
2021/06/04 12:41:43;;;;;;;;;;;;;;;;;;5051896;28;20268;-74
2021/06/04 12:44:09;;;;;;;;;;;;;;;;;;5052694;28;19909;-72
2021/06/04 12:46:35;;;;;;;;;;;;;;;;;;5050571;28;19916;-74
2021/06/04 12:49:01;;;;;;;;;;;;;;;;;;5052878;28;19908;-73
2021/06/04 12:51:27;;;;;;;;;;;;;;;;;;5052870;28;19924;-73
2021/06/04 12:53:53;;;;;;;;;;;;;;;;;;5052715;28;20295;-73
2021/06/04 12:56:19;;;;;;;;;;;;;;;;;;5052649;28;19909;-73
2021/06/04 12:58:46;;;;;;;;;;;;;;;;;;5052403;28;19978;-74
2021/06/04 13:01:12;;;;;;;;;;;;;;;;;;5052865;28;19966;-74
2021/06/04 13:03:38;;;;;;;;;;;;;;;;;;5052172;28;19916;-74
2021/06/04 13:06:04;;;;;;;;;;;;;;;;;;5049541;28;19913;-74
2021/06/04 13:08:30;;;;;;;;;;;;;;;;;;5052067;28;19955;-74
2021/06/04 13:10:55;;;;;;;;;;;;;;;;;;5052476;28;19922;-72
2021/06/04 13:13:21;;;;;;;;;;;;;;;;;;5052738;28;20004;-73
2021/06/04 13:15:47;;;;;;;;;;;;;;;;;;5052949;28;19908;-73
2021/06/04 13:18:13;;;;;;;;;;;;;;;;;;5052341;28;19971;-73
2021/06/04 13:20:39;;;;;;;;;;;;;;;;;;5052168;28;20248;-73
2021/06/04 13:23:05;;;;;;;;;;;;;;;;;;5052152;28;19924;-73
2021/06/04 13:25:31;;;;;;;;;;;;;;;;;;5052214;28;20494;-73
2021/06/04 13:27:57;;;;;;;;;;;;;;;;;;5052133;28;19954;-73
2021/06/04 13:30:23;;;;;;;;;;;;;;;;;;5051833;28;19917;-73
2021/06/04 13:32:49;;;;;;;;;;;;;;;;;;5050959;28;19905;-73
2021/06/04 13:35:15;;;;;;;;;;;;;;;;;;5052163;28;19909;-73
2021/06/04 13:37:41;;;;;;;;;;;;;;;;;;5051948;28;20418;-74
2021/06/04 13:40:07;;;;;;;;;;;;;;;;;;5051774;28;19909;-73
2021/06/04 13:42:33;;;;;;;;;;;;;;;;;;5051087;28;20268;-74
2021/06/04 13:44:59;;;;;;;;;;;;;;;;;;5050333;28;19915;-73
2021/06/04 13:47:25;;;;;;;;;;;;;;;;;;5051671;28;19927;-73
2021/06/04 13:49:51;;;;;;;;;;;;;;;;;;5051704;28;20025;-73
2021/06/04 13:52:18;;;;;;;;;;;;;;;;;;5051734;28;20275;-74
2021/06/04 13:54:44;;;;;;;;;;;;;;;;;;5049911;28;19912;-73
2021/06/04 13:57:10;;;;;;;;;;;;;;;;;;5051608;28;19915;-72
2021/06/04 13:59:36;;;;;;;;;;;;;;;;;;5051487;28;19927;-73
2021/06/04 14:02:02;;;;;;;;;;;;;;;;;;5049773;28;20031;-74
2021/06/04 14:04:28;;;;;;;;;;;;;;;;;;5051536;28;19909;-75
2021/06/04 14:06:53;;;;;;;;;;;;;;;;;;5051436;28;19963;-73
2021/06/04 14:09:21;;;;;;;;;;;;;;;;;;5051502;28;19962;-73
2021/06/04 14:11:48;;;;;;;;;;;;;;;;;;5050985;28;19909;-73
2021/06/04 14:14:13;;;;;;;;;;;;;;;;;;5051400;28;20362;-74
2021/06/04 14:16:40;;;;;;;;;;;;;;;;;;5051446;28;19916;-73
2021/06/04 14:19:05;;;;;;;;;;;;;;;;;;5050900;28;20378;-73
2021/06/04 14:21:31;;;;;;;;;;;;;;;;;;5051038;28;19956;-74
2021/06/04 14:23:57;;;;;;;;;;;;;;;;;;5051363;28;20041;-72
2021/06/04 14:26:23;;;;;;;;;;;;;;;;;;5051279;28;19912;-73
2021/06/04 14:28:49;;;;;;;;;;;;;;;;;;5051221;28;20394;-74
2021/06/04 14:31:15;;;;;;;;;;;;;;;;;;5050644;28;19909;-74
2021/06/04 14:33:43;;;;;;;;;;;;;;;;;;5051084;28;19909;-74
2021/06/04 14:36:08;;;;;;;;;;;;;;;;;;5051041;28;19912;-73
2021/06/04 14:38:34;;;;;;;;;;;;;;;;;;5051025;28;19978;-75
2021/06/04 14:41:00;;;;;;;;;;;;;;;;;;5050540;28;19909;-73
2021/06/04 14:43:26;;;;;;;;;;;;;;;;;;5050900;28;20008;-72
2021/06/04 14:45:52;;;;;;;;;;;;;;;;;;5051016;28;19916;-75
2021/06/04 14:48:21;;;;;;;;;;;;;;;;;;5050802;28;19921;-73
2021/06/04 14:50:46;;;;;;;;;;;;;;;;;;5050722;28;19908;-74
2021/06/04 14:53:12;;;;;;;;;;;;;;;;;;5050709;28;19931;-74
2021/06/04 14:55:38;;;;;;;;;;;;;;;;;;5056065;28;19959;-73
2021/06/04 14:58:04;;;;;;;;;;;;;;;;;;5057645;28;19956;-74
2021/06/04 15:00:30;;;;;;;;;;;;;;;;;;5055981;28;19978;-75
2021/06/04 15:02:56;;;;;;;;;;;;;;;;;;5057046;28;19962;-74
2021/06/04 15:05:22;;;;;;;;;;;;;;;;;;5057400;28;20016;-72
2021/06/04 15:07:48;;;;;;;;;;;;;;;;;;5057268;28;19913;-72
2021/06/04 15:10:14;;;;;;;;;;;;;;;;;;5056136;28;19916;-73
2021/06/04 15:12:40;;;;;;;;;;;;;;;;;;5057418;28;19908;-73
2021/06/04 15:15:06;;;;;;;;;;;;;;;;;;5057129;28;20007;-73
2021/06/04 15:17:32;;;;;;;;;;;;;;;;;;5057254;28;20071;-73
2021/06/04 15:19:58;;;;;;;;;;;;;;;;;;5057460;28;20023;-73
2021/06/04 15:22:24;;;;;;;;;;;;;;;;;;5056697;28;19925;-73
2021/06/04 15:24:50;;;;;;;;;;;;;;;;;;5057342;28;19963;-74
2021/06/04 15:27:16;;;;;;;;;;;;;;;;;;5057256;28;19915;-73
2021/06/04 15:29:42;;;;;;;;;;;;;;;;;;5057136;28;20454;-74
2021/06/04 15:32:09;;;;;;;;;;;;;;;;;;5057206;28;20363;-73
2021/06/04 15:34:35;;;;;;;;;;;;;;;;;;5057525;28;19931;-73
2021/06/04 15:37:01;;;;;;;;;;;;;;;;;;5057322;28;20333;-73
2021/06/04 15:39:27;;;;;;;;;;;;;;;;;;5057390;28;19908;-74
2021/06/04 15:41:53;;;;;;;;;;;;;;;;;;5056832;28;20290;-71
2021/06/04 15:44:20;;;;;;;;;;;;;;;;;;5057132;28;19963;-73
2021/06/04 15:46:46;;;;;;;;;;;;;;;;;;5056747;28;20445;-72
2021/06/04 15:49:12;;;;;;;;;;;;;;;;;;5056869;28;20090;-74
2021/06/04 15:51:38;;;;;;;;;;;;;;;;;;5056973;28;19916;-74
2021/06/04 15:54:04;;;;;;;;;;;;;;;;;;5056932;28;19944;-74
2021/06/04 15:56:30;;;;;;;;;;;;;;;;;;5057052;28;19957;-74
2021/06/04 15:58:56;;;;;;;;;;;;;;;;;;5056645;28;20557;-73
2021/06/04 16:01:22;;;;;;;;;;;;;;;;;;5056678;28;20035;-73
2021/06/04 16:03:48;;;;;;;;;;;;;;;;;;5057123;28;19960;-73
2021/06/04 16:06:18;;;;;;;;;;;;;;;;;;5055001;28;19913;-75
2021/06/04 16:08:44;;;;;;;;;;;;;;;;;;5053608;28;19940;-74
2021/06/04 16:11:10;;;;;;;;;;;;;;;;;;5053382;28;20375;-72
2021/06/04 16:13:36;;;;;;;;;;;;;;;;;;5053749;28;19916;-73
2021/06/04 16:16:02;;;;;;;;;;;;;;;;;;5053503;28;19912;-74
2021/06/04 16:18:28;;;;;;;;;;;;;;;;;;5053838;28;19909;-74
2021/06/04 16:20:54;;;;;;;;;;;;;;;;;;5053362;28;19912;-74
2021/06/04 16:23:20;;;;;;;;;;;;;;;;;;5053146;28;20007;-74
2021/06/04 16:25:46;;;;;;;;;;;;;;;;;;5053306;28;20283;-73
2021/06/04 16:28:12;;;;;;;;;;;;;;;;;;5053373;28;19913;-73
2021/06/04 16:30:38;;;;;;;;;;;;;;;;;;5053222;28;19986;-73
2021/06/04 16:33:04;;;;;;;;;;;;;;;;;;5052890;28;19943;-73
2021/06/04 16:35:30;;;;;;;;;;;;;;;;;;5052965;28;20256;-73
2021/06/04 16:37:56;;;;;;;;;;;;;;;;;;5053273;28;20430;-72
2021/06/04 16:40:22;;;;;;;;;;;;;;;;;;5051665;28;20036;-73